Terminal Aerodrome Forecast
Issued by NWS Northern Indiana

Home | Current Version | Previous Version | Graphics & Text | Print | Product List | Glossary On
Versions: 1 2 3 4 5 6 7 8 9 10 11 12 13 14 15 16 17 18 19 20
000
FTUS43 KIWX 270200 AAA
TAFFWA
TAF AMD
KFWA 270200Z 2702/2724 24007KT 4SM BR SCT009 OVC012
      TEMPO 2703/2705 BKN009
     FM270500 22005KT 3SM BR SCT015 BKN025
     FM271500 23008KT 6SM BR VCSH BKN035
     FM271800 29010KT 6SM -SHRA VCTS SCT025CB BKN035=

USA.gov is the U.S. government's official web portal to all federal, state and local government web resources and services.